Time;durP1;ratioP1;P1;durP2;ratioP2;P2;SDS_P1;SDS_P2;PMS_P1;PMS_P2;Temp;Humidity;BMP_temperature;BMP_pressure;BME280_temperature;BME280_humidity;BME280_pressure;Samples;Min_cycle;Max_cycle;Signal;HPM_P1;HPM_P2
2021/04/17 00:01:09;;;;;;;16.90;6.97;;;;;;;2.81;100.00;101186.90;1407331;100;21367;-93
2021/04/17 00:03:35;;;;;;;15.83;6.87;;;;;;;2.77;100.00;101188.83;1442011;97;21222;-93
2021/04/17 00:06:01;;;;;;;16.82;7.58;;;;;;;2.72;100.00;101184.89;1571187;89;21074;-93
2021/04/17 00:08:30;;;;;;;18.65;7.45;;;;;;;2.72;100.00;101184.07;1657822;84;21107;-93
2021/04/17 00:11:05;;;;;;;15.63;6.60;;;;;;;2.69;100.00;101194.59;1686547;85;21284;-93
2021/04/17 00:13:27;;;;;;;16.82;6.95;;;;;;;2.68;100.00;101197.45;1605062;89;21188;-93
2021/04/17 00:15:54;;;;;;;15.50;6.95;;;;;;;2.63;100.00;101200.69;1605479;89;21181;-93
2021/04/17 00:18:39;;;;;;;16.02;7.45;;;;;;;2.60;100.00;101197.59;1598486;89;21182;-94
2021/04/17 00:21:05;;;;;;;19.27;7.42;;;;;;;2.58;100.00;101199.09;1580128;90;21233;-93
2021/04/17 00:23:32;;;;;;;17.20;7.35;;;;;;;2.58;100.00;101195.11;1575242;89;21228;-94
2021/04/17 00:25:59;;;;;;;17.48;7.62;;;;;;;2.55;100.00;101194.67;1580207;90;21263;-94
2021/04/17 00:28:25;;;;;;;17.05;7.35;;;;;;;2.40;100.00;101174.30;1559758;91;21226;-93
2021/04/17 00:30:51;;;;;;;18.37;7.05;;;;;;;2.49;100.00;101197.59;1579734;91;21230;-93
2021/04/17 00:33:17;;;;;;;14.05;6.55;;;;;;;2.45;100.00;101198.48;1579864;90;21158;-93
2021/04/17 00:35:44;;;;;;;16.73;7.55;;;;;;;2.48;100.00;101194.62;1559606;91;21181;-93
2021/04/17 00:38:10;;;;;;;17.60;7.28;;;;;;;2.34;100.00;101171.58;1579815;90;21233;-93
2021/04/17 00:40:36;;;;;;;15.15;6.85;;;;;;;2.46;100.00;101194.80;1635300;85;21185;-94
2021/04/17 00:43:06;;;;;;;20.52;7.45;;;;;;;2.49;100.00;101202.91;1688506;85;21067;-93
2021/04/17 00:45:33;;;;;;;13.62;6.47;;;;;;;2.48;100.00;101204.75;1688296;83;21174;-93
2021/04/17 00:47:59;;;;;;;17.12;7.10;;;;;;;2.44;100.00;101199.99;1687957;85;21170;-93
2021/04/17 00:50:25;;;;;;;14.18;6.72;;;;;;;2.43;100.00;101202.34;1687968;85;21736;-93
2021/04/17 00:52:54;;;;;;;15.45;6.83;;;;;;;2.42;100.00;101209.52;1687715;85;21170;-93
2021/04/17 00:55:20;;;;;;;13.80;6.28;;;;;;;2.36;100.00;101218.25;1687473;85;21315;-93
2021/04/17 00:57:46;;;;;;;14.03;7.00;;;;;;;2.33;100.00;101211.17;1687402;85;21142;-93
2021/04/17 01:00:15;;;;;;;16.30;6.47;;;;;;;2.32;100.00;101214.31;1687296;85;21149;-93
2021/04/17 01:02:48;;;;;;;16.17;6.87;;;;;;;2.32;100.00;101214.31;1687396;85;21151;-93
2021/04/17 01:05:17;;;;;;;15.93;6.85;;;;;;;2.31;100.00;101205.20;1678449;84;21223;-93
2021/04/17 01:07:49;;;;;;;16.35;7.40;;;;;;;2.26;100.00;101211.93;1709761;82;21137;-93
2021/04/17 01:10:40;;;;;;;15.60;7.17;;;;;;;2.25;100.00;101208.94;1758126;79;21053;-93
2021/04/17 01:13:09;;;;;;;16.45;7.08;;;;;;;2.25;100.00;101209.45;1686333;85;21136;-94
2021/04/17 01:15:37;;;;;;;15.63;6.50;;;;;;;2.20;100.00;101211.33;1686398;85;21199;-93
2021/04/17 01:18:05;;;;;;;15.38;7.10;;;;;;;2.15;100.00;101211.09;1686224;83;21116;-94
2021/04/17 01:20:45;;;;;;;17.48;6.72;;;;;;;2.17;100.00;101214.37;1686267;85;21160;-93
2021/04/17 01:23:44;;;;;;;16.32;6.87;;;;;;;2.20;100.00;101217.16;1684529;85;21164;-93
2021/04/17 01:26:21;;;;;;;14.20;6.45;;;;;;;2.18;100.00;101216.55;1686606;85;21247;-93
2021/04/17 01:28:55;;;;;;;18.73;7.35;;;;;;;2.14;100.00;101214.75;1686906;85;21337;-93
2021/04/17 01:31:28;;;;;;;14.80;6.80;;;;;;;2.14;100.00;101217.41;1686677;85;21576;-93
2021/04/17 01:33:57;;;;;;;;;;;;;;;2.15;100.00;101217.74;1689042;85;21090;-93
2021/04/17 01:36:25;;;;;;;15.35;6.78;;;;;;;2.11;100.00;101216.45;1686350;85;20355;-93
2021/04/17 01:38:56;;;;;;;18.02;7.20;;;;;;;2.17;100.00;101216.20;1687133;85;21195;-93
2021/04/17 01:41:36;;;;;;;18.25;7.53;;;;;;;2.18;100.00;101220.02;1631580;87;21167;-93
2021/04/17 01:44:13;;;;;;;20.40;8.63;;;;;;;2.24;100.00;101223.25;1599665;88;21249;-94
2021/04/17 01:46:43;;;;;;;18.55;8.25;;;;;;;2.32;100.00;101221.47;1621236;88;21151;-94
2021/04/17 01:49:14;;;;;;;19.02;8.48;;;;;;;2.40;100.00;101225.34;1619105;87;21198;-93
2021/04/17 01:51:44;;;;;;;18.05;8.38;;;;;;;2.43;100.00;101226.28;1650068;87;21146;-93
2021/04/17 01:54:20;;;;;;;26.10;9.63;;;;;;;2.52;100.00;101225.14;1649571;87;21317;-94
2021/04/17 01:56:49;;;;;;;18.60;8.68;;;;;;;2.61;100.00;101224.50;1648634;87;21190;-95
2021/04/17 01:59:19;;;;;;;24.77;10.25;;;;;;;2.71;100.00;101227.67;1628472;87;21119;-94
2021/04/17 02:01:46;;;;;;;65.17;20.88;;;;;;;2.78;100.00;101229.05;1650795;84;21238;-93
2021/04/17 02:04:13;;;;;;;57.05;19.98;;;;;;;2.93;100.00;101226.60;1649565;85;21152;-93
2021/04/17 02:06:39;;;;;;;200.13;65.47;;;;;;;2.95;100.00;101226.42;1649667;87;21224;-94
2021/04/17 02:09:05;;;;;;;106.78;35.83;;;;;;;3.01;100.00;101226.97;1666752;82;21160;-93
2021/04/17 02:11:32;;;;;;;40.05;14.87;;;;;;;3.10;100.00;101232.98;1734089;82;21220;-93
2021/04/17 02:14:02;;;;;;;54.88;20.25;;;;;;;3.18;100.00;101234.98;1733513;82;21259;-93
2021/04/17 02:16:46;;;;;;;54.93;20.50;;;;;;;3.24;100.00;101235.23;1733294;82;21192;-94
2021/04/17 02:19:23;;;;;;;100.53;37.25;;;;;;;3.32;100.00;101237.70;1733568;82;21207;-92
2021/04/17 02:21:51;;;;;;;40.00;16.00;;;;;;;3.35;100.00;101235.50;1677418;85;21639;-93
2021/04/17 02:24:17;;;;;;;48.17;19.42;;;;;;;3.43;100.00;101236.34;1657571;85;21227;-93
2021/04/17 02:26:44;;;;;;;38.08;16.32;;;;;;;3.49;100.00;101238.22;1680518;85;21636;-93
2021/04/17 02:29:10;;;;;;;150.07;58.87;;;;;;;3.60;100.00;101236.34;1657088;85;21152;-92
2021/04/17 02:31:37;;;;;;;63.75;27.17;;;;;;;3.79;100.00;101240.09;1680433;85;21195;-92
2021/04/17 02:34:03;;;;;;;43.23;17.73;;;;;;;3.80;100.00;101239.91;1657256;85;21644;-92
2021/04/17 02:36:30;;;;;;;30.35;13.72;;;;;;;3.94;100.00;101242.61;1657148;85;21661;-92
2021/04/17 02:38:56;;;;;;;48.68;21.75;;;;;;;3.98;100.00;101235.36;1704047;83;21242;-92
2021/04/17 02:41:22;;;;;;;45.58;20.50;;;;;;;4.09;100.00;101233.45;1721113;83;21184;-91
2021/04/17 02:43:48;;;;;;;25.17;11.28;;;;;;;4.14;100.00;101235.50;1720942;83;21175;-93
2021/04/17 02:46:16;;;;;;;37.05;16.62;;;;;;;4.21;100.00;101239.02;1721378;83;21168;-92
2021/04/17 02:48:42;;;;;;;33.75;12.70;;;;;;;4.35;100.00;101238.52;1721292;83;21184;-92
2021/04/17 02:51:08;;;;;;;37.65;14.83;;;;;;;4.37;100.00;101233.80;1721071;83;21088;-92
2021/04/17 02:53:35;;;;;;;49.93;18.55;;;;;;;4.40;100.00;101241.41;1721290;83;21255;-91
2021/04/17 02:56:01;;;;;;;22.00;9.65;;;;;;;4.53;100.00;101241.95;1721094;83;21862;-92
2021/04/17 02:58:27;;;;;;;27.77;12.43;;;;;;;4.58;100.00;101244.81;1734651;80;21116;-92
2021/04/17 03:00:53;;;;;;;28.87;12.13;;;;;;;4.57;100.00;101247.70;1777386;80;21147;-91
2021/04/17 03:03:19;;;;;;;30.82;12.53;;;;;;;4.59;100.00;101245.14;1777455;80;21784;-92
2021/04/17 03:05:45;;;;;;;25.15;10.82;;;;;;;4.66;100.00;101254.48;1799632;78;21533;-93
2021/04/17 03:08:12;;;;;;;25.10;10.25;;;;;;;4.77;100.00;101243.20;1803673;79;21210;-92
2021/04/17 03:10:38;;;;;;;24.02;9.60;;;;;;;4.77;100.00;101252.55;1803477;78;21108;-91
2021/04/17 03:13:07;;;;;;;26.15;11.78;;;;;;;4.83;100.00;101258.39;1803735;78;21033;-92
2021/04/17 03:15:33;;;;;;;22.35;9.80;;;;;;;4.90;100.00;101257.88;1803457;78;21100;-92
2021/04/17 03:17:59;;;;;;;25.82;11.12;;;;;;;4.90;100.00;101257.88;1803587;79;21128;-92
2021/04/17 03:20:26;;;;;;;23.07;9.63;;;;;;;4.96;100.00;101258.38;1803376;79;21641;-92
2021/04/17 03:22:52;;;;;;;23.15;9.78;;;;;;;5.01;100.00;101263.94;1803494;79;21089;-92
2021/04/17 03:25:19;;;;;;;26.85;10.25;;;;;;;5.06;100.00;101267.82;1803461;79;21020;-92
2021/04/17 03:27:46;;;;;;;19.87;9.53;;;;;;;5.13;100.00;101269.99;1799777;79;21141;-92
2021/04/17 03:30:16;;;;;;;27.73;10.95;;;;;;;5.22;100.00;101267.41;1803533;78;21093;-92
2021/04/17 03:32:42;;;;;;;23.77;10.38;;;;;;;5.26;100.00;101267.29;1803663;78;21565;-92
2021/04/17 03:35:13;;;;;;;24.40;10.70;;;;;;;5.23;100.00;101275.72;1803717;79;21208;-92
2021/04/17 03:37:41;;;;;;;27.27;10.63;;;;;;;5.32;100.00;101267.79;1803972;79;21121;-92
2021/04/17 03:40:09;;;;;;;22.58;10.50;;;;;;;5.40;100.00;101264.09;1781599;79;21131;-92
2021/04/17 03:42:36;;;;;;;27.05;11.18;;;;;;;5.49;100.00;101271.37;1781805;79;21133;-93
2021/04/17 03:45:02;;;;;;;24.45;9.90;;;;;;;5.58;100.00;101271.45;1804385;78;21522;-93
2021/04/17 03:47:28;;;;;;;22.87;10.18;;;;;;;5.61;100.00;101277.19;1803985;78;21088;-92
2021/04/17 03:49:54;;;;;;;24.63;9.68;;;;;;;5.51;100.00;101278.67;1804537;79;20942;-93
2021/04/17 03:52:21;;;;;;;19.90;9.70;;;;;;;5.61;100.00;101281.72;1804256;78;20930;-93
2021/04/17 03:54:47;;;;;;;20.88;9.48;;;;;;;5.59;100.00;101284.62;1804677;78;21137;-93
2021/04/17 03:57:13;;;;;;;25.45;10.90;;;;;;;5.71;100.00;101294.15;1782950;79;21549;-92
2021/04/17 03:59:39;;;;;;;24.98;10.63;;;;;;;5.78;100.00;101294.13;1805764;78;20950;-93
2021/04/17 04:02:05;;;;;;;27.22;12.20;;;;;;;5.96;100.00;101290.27;1805120;78;21572;-93
2021/04/17 04:04:31;;;;;;;25.48;11.65;;;;;;;5.80;100.00;101302.77;1785083;78;21140;-94
2021/04/17 04:06:57;;;;;;;28.83;12.90;;;;;;;6.04;100.00;101298.59;1790957;79;21033;-93
2021/04/17 04:09:23;;;;;;;30.95;13.53;;;;;;;6.06;100.00;101298.69;1811581;79;21108;-93
2021/04/17 04:11:49;;;;;;;30.92;13.03;;;;;;;6.12;100.00;101301.03;1811615;79;21096;-93
2021/04/17 04:14:15;;;;;;;26.73;12.18;;;;;;;6.25;100.00;101296.94;1812778;79;20958;-92
2021/04/17 04:16:41;;;;;;;28.98;12.85;;;;;;;6.17;100.00;101287.00;1813330;77;21104;-93
2021/04/17 04:19:07;;;;;;;34.73;13.80;;;;;;;6.59;100.00;101294.39;1812701;79;21061;-94
2021/04/17 04:21:33;;;;;;;37.33;14.58;;;;;;;6.50;100.00;101301.53;1765637;79;21351;-94
2021/04/17 04:23:59;;;;;;;31.97;14.60;;;;;;;6.73;100.00;101304.47;1812100;79;20960;-93
2021/04/17 04:26:25;;;;;;;29.23;13.48;;;;;;;7.01;100.00;101301.91;1811214;79;20908;-94
2021/04/17 04:28:51;;;;;;;32.48;13.83;;;;;;;6.92;100.00;101297.87;1807706;79;20928;-94
2021/04/17 04:31:18;;;;;;;31.10;14.00;;;;;;;7.11;100.00;101292.84;1800168;79;20931;-93
2021/04/17 04:33:44;;;;;;;30.32;13.53;;;;;;;7.17;100.00;101296.52;1806956;79;21180;-94
2021/04/17 04:36:10;;;;;;;27.65;12.93;;;;;;;7.32;100.00;101300.19;1806021;79;20938;-94
2021/04/17 04:38:36;;;;;;;28.25;13.40;;;;;;;7.38;100.00;101310.03;1806730;79;21149;-94
2021/04/17 04:41:02;;;;;;;26.23;12.82;;;;;;;7.76;100.00;101311.19;1786217;79;21083;-94
2021/04/17 04:43:28;;;;;;;26.62;12.55;;;;;;;7.76;100.00;101308.50;1785095;79;21109;-93
2021/04/17 04:45:56;;;;;;;26.02;12.05;;;;;;;7.86;100.00;101314.72;1780018;79;21593;-92
2021/04/17 04:48:21;;;;;;;23.27;11.80;;;;;;;8.09;100.00;101314.85;1803907;79;21215;-93
2021/04/17 04:50:47;;;;;;;23.27;11.00;;;;;;;7.98;100.00;101318.28;1804599;79;21030;-94
2021/04/17 04:53:13;;;;;;;22.37;10.30;;;;;;;8.06;100.00;101322.02;1804705;79;20935;-93
2021/04/17 04:55:39;;;;;;;21.97;10.18;;;;;;;8.17;100.00;101317.73;1804592;79;21050;-94
2021/04/17 04:58:05;;;;;;;21.95;10.48;;;;;;;8.26;100.00;101319.59;1805008;79;21166;-93
2021/04/17 05:00:31;;;;;;;21.95;9.93;;;;;;;8.12;100.00;101325.14;1804624;79;20939;-94
2021/04/17 05:02:57;;;;;;;21.70;10.15;;;;;;;7.94;100.00;101327.81;1804970;79;21120;-94
2021/04/17 05:05:24;;;;;;;20.00;10.08;;;;;;;7.87;100.00;101327.89;1800351;79;20927;-94
2021/04/17 05:07:49;;;;;;;18.57;9.00;;;;;;;7.99;100.00;101323.94;1796309;79;21094;-94
2021/04/17 05:10:15;;;;;;;20.27;9.50;;;;;;;8.04;100.00;101330.80;1796146;79;21182;-93
2021/04/17 05:12:41;;;;;;;19.40;9.58;;;;;;;7.98;100.00;101336.26;1796071;79;21161;-95
2021/04/17 05:15:09;;;;;;;19.92;9.80;;;;;;;8.03;100.00;101337.23;1796026;79;20951;-92
2021/04/17 05:17:35;;;;;;;19.50;8.95;;;;;;;7.81;100.00;101328.79;1792638;79;21161;-93
2021/04/17 05:20:01;;;;;;;18.45;9.03;;;;;;;7.95;100.00;101335.66;1786557;79;21251;-93
2021/04/17 05:22:27;;;;;;;21.10;9.98;;;;;;;7.99;100.00;101340.05;1783445;79;22143;-93
2021/04/17 05:24:52;;;;;;;24.67;10.80;;;;;;;8.10;100.00;101340.64;1782376;79;20940;-92
2021/04/17 05:27:19;;;;;;;24.30;10.98;;;;;;;8.12;100.00;101342.59;1796196;79;21022;-92
2021/04/17 05:29:47;;;;;;;23.12;10.68;;;;;;;8.18;100.00;101346.24;1796909;79;21609;-95
2021/04/17 05:32:13;;;;;;;23.32;11.22;;;;;;;7.90;100.00;101344.08;1738612;82;21145;-90
2021/04/17 05:34:39;;;;;;;27.20;11.78;;;;;;;8.15;100.00;101339.98;1738230;82;21189;-92
2021/04/17 05:37:05;;;;;;;28.52;11.63;;;;;;;8.13;100.00;101342.88;1738177;82;21216;-92
2021/04/17 05:39:31;;;;;;;25.88;12.50;;;;;;;7.92;100.00;101341.47;1738463;82;21014;-92
2021/04/17 05:41:57;;;;;;;27.42;12.98;;;;;;;8.06;100.00;101342.64;1738840;82;21156;-94
2021/04/17 05:44:23;;;;;;;31.10;13.32;;;;;;;7.87;100.00;101344.52;1738794;82;21188;-93
2021/04/17 05:46:49;;;;;;;33.83;14.58;;;;;;;7.88;100.00;101347.00;1738144;82;21215;-93
2021/04/17 05:49:16;;;;;;;30.75;14.70;;;;;;;7.99;100.00;101346.75;1738847;82;21172;-93
2021/04/17 05:51:43;;;;;;;30.60;12.85;;;;;;;8.11;100.00;101347.64;1738604;82;21077;-92
2021/04/17 05:54:11;;;;;;;27.55;12.13;;;;;;;8.09;100.00;101348.91;1738522;82;21228;-92
2021/04/17 05:56:38;;;;;;;28.73;12.75;;;;;;;8.14;100.00;101348.53;1738188;82;21208;-92
2021/04/17 05:59:05;;;;;;;33.05;14.95;;;;;;;8.10;100.00;101351.38;1738485;82;21266;-93
2021/04/17 06:01:31;;;;;;;31.33;14.50;;;;;;;8.26;100.00;101345.09;1738177;82;21161;-93
2021/04/17 06:03:58;;;;;;;30.15;13.50;;;;;;;8.19;100.00;101347.34;1738289;82;21653;-93
2021/04/17 06:06:24;;;;;;;30.85;13.62;;;;;;;8.27;100.00;101344.89;1744695;81;21148;-93
2021/04/17 06:08:50;;;;;;;28.95;13.95;;;;;;;8.19;100.00;101342.50;1746655;82;21117;-93
2021/04/17 06:11:16;;;;;;;30.30;13.68;;;;;;;8.39;100.00;101336.91;1746414;82;21234;-94
2021/04/17 06:13:42;;;;;;;32.73;14.40;;;;;;;8.56;100.00;101341.11;1746245;82;21097;-93
2021/04/17 06:16:09;;;;;;;32.42;14.68;;;;;;;8.66;100.00;101338.71;1721339;82;21160;-93
2021/04/17 06:18:36;;;;;;;60.08;20.88;;;;;;;8.81;100.00;101345.82;1746593;82;21644;-93
2021/04/17 06:21:04;;;;;;;63.25;20.97;;;;;;;9.06;100.00;101344.84;1746543;82;21501;-94
2021/04/17 06:23:30;;;;;;;39.55;15.18;;;;;;;9.04;100.00;101349.63;1746641;82;21124;-93
2021/04/17 06:25:56;;;;;;;36.33;14.93;;;;;;;9.51;100.00;101346.45;1746268;82;21224;-93
2021/04/17 06:28:22;;;;;;;43.38;15.53;;;;;;;9.51;100.00;101345.11;1760130;79;21007;-93
2021/04/17 06:30:48;;;;;;;29.12;12.90;;;;;;;9.45;100.00;101344.70;1811642;79;20934;-93
2021/04/17 06:33:14;;;;;;;28.60;12.13;;;;;;;9.48;100.00;101349.61;1777239;79;21646;-93
2021/04/17 06:35:41;;;;;;;24.30;12.15;;;;;;;9.59;100.00;101349.83;1807448;78;21225;-93
2021/04/17 06:38:13;;;;;;;24.25;11.75;;;;;;;9.48;100.00;101360.38;1807264;79;21117;-93
2021/04/17 06:40:36;;;;;;;22.58;11.80;;;;;;;9.53;100.00;101359.69;1801941;79;21803;-93
2021/04/17 06:43:04;;;;;;;21.80;10.95;;;;;;;9.33;100.00;101366.75;1807428;79;21065;-93
2021/04/17 06:45:38;;;;;;;24.80;10.93;;;;;;;9.36;100.00;101366.28;1746327;81;21239;-93
2021/04/17 06:48:09;;;;;;;21.97;10.85;;;;;;;9.63;100.00;101366.64;1746449;80;21265;-94
2021/04/17 06:50:38;;;;;;;25.10;11.00;;;;;;;9.29;100.00;101366.90;1746517;82;21324;-92
2021/04/17 06:53:10;;;;;;;24.43;11.73;;;;;;;9.26;100.00;101372.73;1746221;82;21211;-92
2021/04/17 06:55:37;;;;;;;21.68;10.90;;;;;;;9.26;100.00;101377.59;1746290;81;21172;-92
2021/04/17 06:58:04;;;;;;;24.37;11.68;;;;;;;9.39;100.00;101381.95;1746358;82;21491;-93
2021/04/17 07:00:30;;;;;;;23.15;11.43;;;;;;;9.51;100.00;101376.58;1746324;82;21159;-93
2021/04/17 07:02:56;;;;;;;23.35;11.22;;;;;;;9.81;100.00;101379.68;1746287;82;21196;-92
2021/04/17 07:05:22;;;;;;;22.90;11.63;;;;;;;10.01;100.00;101367.48;1746158;82;21128;-93
2021/04/17 07:07:48;;;;;;;24.20;10.85;;;;;;;10.03;100.00;101373.98;1746356;82;21061;-92
2021/04/17 07:10:16;;;;;;;24.43;11.22;;;;;;;10.16;100.00;101379.63;1746463;82;21152;-92
2021/04/17 07:12:45;;;;;;;21.95;10.63;;;;;;;10.40;100.00;101378.53;1746397;82;21216;-92
2021/04/17 07:15:14;;;;;;;20.10;10.55;;;;;;;10.59;100.00;101382.39;1746434;82;21152;-92
2021/04/17 07:17:41;;;;;;;20.48;10.80;;;;;;;10.52;100.00;101385.77;1746528;82;21160;-92
2021/04/17 07:20:13;;;;;;;22.48;11.18;;;;;;;10.39;100.00;101383.64;1746526;82;21184;-92
2021/04/17 07:22:42;;;;;;;32.90;13.72;;;;;;;10.31;100.00;101384.55;1680034;85;21149;-93
2021/04/17 07:25:13;;;;;;;33.65;15.50;;;;;;;10.31;100.00;101386.70;1680125;85;21920;-92
2021/04/17 07:27:43;;;;;;;31.05;14.63;;;;;;;10.34;100.00;101394.31;1680050;85;21243;-92
2021/04/17 07:30:23;;;;;;;33.02;14.75;;;;;;;10.25;100.00;101393.02;1680191;85;21642;-93
2021/04/17 07:33:14;;;;;;;39.38;17.45;;;;;;;9.99;100.00;101395.16;1680170;85;21156;-92
2021/04/17 07:35:46;;;;;;;34.27;16.30;;;;;;;9.99;100.00;101401.89;1657294;85;21169;-91
2021/04/17 07:38:18;;;;;;;38.15;16.37;;;;;;;10.06;100.00;101400.44;1680169;85;21601;-91
2021/04/17 07:41:07;;;;;;;27.70;13.88;;;;;;;10.05;100.00;101397.44;1679921;85;21609;-92
2021/04/17 07:43:53;;;;;;;30.30;14.03;;;;;;;9.97;100.00;101402.67;1729719;83;21172;-94
2021/04/17 07:46:32;;;;;;;26.48;12.40;;;;;;;9.90;100.00;101411.38;1729593;82;21220;-94
2021/04/17 07:49:18;;;;;;;29.48;13.05;;;;;;;9.68;100.00;101412.52;1729356;83;21152;-95
2021/04/17 07:52:08;;;;;;;29.52;13.70;;;;;;;9.61;100.00;101417.17;1729378;83;21233;-92
2021/04/17 07:54:34;;;;;;;31.10;14.60;;;;;;;9.60;100.00;101414.20;1729341;83;21251;-93
2021/04/17 07:57:09;;;;;;;30.08;13.60;;;;;;;9.67;100.00;101420.27;1727482;81;21569;-94
2021/04/17 07:59:38;;;;;;;28.30;13.83;;;;;;;9.70;100.00;101421.69;1695223;84;21215;-91
2021/04/17 08:02:05;;;;;;;27.45;13.85;;;;;;;9.28;100.00;101425.25;1690603;84;21143;-94
2021/04/17 08:04:32;;;;;;;30.52;15.08;;;;;;;9.24;100.00;101423.27;1692502;84;21159;-94
2021/04/17 08:07:00;;;;;;;55.17;23.87;;;;;;;9.40;100.00;101422.59;1691955;84;21164;-94
2021/04/17 08:09:27;;;;;;;94.30;38.28;;;;;;;9.44;100.00;101422.94;1701100;84;21259;-94
2021/04/17 08:11:57;;;;;;;50.90;22.45;;;;;;;9.28;100.00;101424.44;1701179;84;21238;-94
2021/04/17 08:14:25;;;;;;;35.75;15.00;;;;;;;9.36;100.00;101420.61;1701709;84;21243;-95
2021/04/17 08:16:53;;;;;;;36.28;15.83;;;;;;;9.33;100.00;101419.20;1701666;84;21230;-93
2021/04/17 08:19:20;;;;;;;32.30;15.80;;;;;;;9.20;100.00;101426.11;1639664;86;21225;-93
2021/04/17 08:21:48;;;;;;;37.85;16.65;;;;;;;9.21;100.00;101423.20;1612905;86;21186;-93
2021/04/17 08:24:22;;;;;;;35.33;15.72;;;;;;;9.23;100.00;101421.61;1639751;86;21102;-92
2021/04/17 08:26:54;;;;;;;38.48;17.82;;;;;;;9.16;100.00;101420.91;1668379;83;21732;-92
2021/04/17 08:29:51;;;;;;;38.85;17.48;;;;;;;9.34;100.00;101420.83;1716160;83;21892;-93
2021/04/17 08:32:34;;;;;;;38.75;17.45;;;;;;;9.51;100.00;101417.75;1667319;86;21111;-92
2021/04/17 08:35:10;;;;;;;34.78;17.07;;;;;;;9.58;100.00;101414.13;1667322;85;21075;-91
2021/04/17 08:38:02;;;;;;;33.30;16.05;;;;;;;9.51;100.00;101413.72;1667180;86;21679;-92
2021/04/17 08:40:39;;;;;;;29.90;15.40;;;;;;;9.68;100.00;101413.86;1607243;87;21217;-93
2021/04/17 08:43:17;;;;;;;31.45;15.00;;;;;;;9.72;100.00;101401.56;1618189;88;21227;-92
2021/04/17 08:46:14;;;;;;;30.17;14.63;;;;;;;9.73;100.00;101409.10;1621155;88;21262;-93
2021/04/17 08:48:57;;;;;;;30.05;14.98;;;;;;;10.01;100.00;101401.67;1618737;87;21197;-93
2021/04/17 08:51:30;;;;;;;28.90;14.83;;;;;;;10.09;100.00;101399.97;1618739;88;21257;-92
2021/04/17 08:54:09;;;;;;;29.57;15.13;;;;;;;10.37;100.00;101395.18;1618280;88;21237;-92
2021/04/17 08:56:51;;;;;;;26.77;14.68;;;;;;;10.32;100.00;101395.06;1597380;88;21641;-93
2021/04/17 08:59:24;;;;;;;30.10;14.53;;;;;;;10.29;100.00;101390.69;1569795;91;21737;-91
2021/04/17 09:01:53;;;;;;;29.95;14.40;;;;;;;10.44;100.00;101390.49;1570932;91;21213;-92
2021/04/17 09:04:21;;;;;;;27.40;14.35;;;;;;;10.82;100.00;101391.72;1571012;91;21387;-91
2021/04/17 09:06:51;;;;;;;27.32;14.10;;;;;;;10.84;100.00;101380.72;1571036;91;21228;-91
2021/04/17 09:09:22;;;;;;;28.65;14.98;;;;;;;10.91;100.00;101380.02;1568592;91;21262;-92
2021/04/17 09:14:55;;;;;;;25.17;13.83;;;;;;;11.14;100.00;101382.59;1518162;94;21721;-90
2021/04/17 09:17:49;;;;;;;28.85;14.25;;;;;;;11.55;100.00;101378.38;1499928;94;21217;-90
2021/04/17 09:20:30;;;;;;;;;;;;;;;;;;;;;
2021/04/17 09:23:01;;;;;;;;;;;;;;;;;;;;;
2021/04/17 09:25:55;;;;;;;;;;;;;;;;;;;;;
2021/04/17 09:28:32;;;;;;;;;;;;;;;;;;;;;
2021/04/17 09:30:52;;;;;;;24.30;13.85;;;;;;;13.05;100.00;101379.41;1288538;111;21377;-90
2021/04/17 09:33:20;;;;;;;23.45;13.18;;;;;;;13.38;100.00;101382.97;1288664;111;21409;-92
2021/04/17 09:35:46;;;;;;;27.77;13.93;;;;;;;13.82;100.00;101373.24;1274154;111;21339;-92
2021/04/17 09:38:27;;;;;;;;;;;;;;;;;;;;;
2021/04/17 09:40:58;;;;;;;25.52;12.47;;;;;;;14.91;100.00;101375.59;1219710;116;21792;-92
2021/04/17 09:43:32;;;;;;;23.98;11.73;;;;;;;15.18;100.00;101365.02;1250113;112;21340;-91
2021/04/17 09:46:14;;;;;;;;;;;;;;;;;;;;;
2021/04/17 09:48:51;;;;;;;;;;;;;;;;;;;;;
2021/04/17 09:51:35;;;;;;;;;;;;;;;;;;;;;
2021/04/17 09:55:34;;;;;;;;;;;;;;;14.85;100.00;101379.34;1263346;112;21446;-91
2021/04/17 09:58:49;;;;;;;23.85;11.45;;;;;;;14.38;100.00;101373.50;1270905;111;20590;-91
2021/04/17 10:01:29;;;;;;;;;;;;;;;;;;;;;
2021/04/17 10:22:14;;;;;;;;;;;;;;;;;;;;;
2021/04/17 10:24:40;;;;;;;17.37;9.58;;;;;;;14.92;87.54;101379.92;1206490;117;21340;-87
2021/04/17 10:27:14;;;;;;;17.10;9.33;;;;;;;14.96;94.79;101375.57;1215021;116;21749;-86
2021/04/17 10:30:03;;;;;;;;;;;;;;;;;;;;;
2021/04/17 10:32:31;;;;;;;14.25;7.22;;;;;;;15.33;90.55;101374.51;1188755;117;21756;-86
2021/04/17 10:35:12;;;;;;;12.93;6.72;;;;;;;15.30;90.01;101378.32;1183043;121;21538;-91
2021/04/17 10:37:47;;;;;;;12.05;7.08;;;;;;;15.31;82.27;101375.31;1182997;121;21351;-89
2021/04/17 10:40:18;;;;;;;10.40;5.87;;;;;;;15.41;88.32;101373.13;1194849;118;21744;-91
2021/04/17 10:43:04;;;;;;;11.10;6.92;;;;;;;15.47;85.11;101372.58;1209314;118;21263;-91
2021/04/17 10:45:36;;;;;;;11.97;6.92;;;;;;;15.83;90.58;101365.23;1224233;116;21270;-90
2021/04/17 10:48:17;;;;;;;12.30;7.12;;;;;;;16.26;85.81;101360.97;1232721;113;21977;-90
2021/04/17 10:50:54;;;;;;;13.28;6.85;;;;;;;16.86;79.38;101371.84;1257892;114;21761;-91
2021/04/17 10:53:31;;;;;;;11.53;7.12;;;;;;;16.70;66.27;101371.08;1257676;112;21535;-90
2021/04/17 10:56:02;;;;;;;13.18;6.85;;;;;;;16.92;74.19;101375.34;1237411;114;21353;-90
2021/04/17 10:58:34;;;;;;;12.20;6.58;;;;;;;17.02;73.97;101372.53;1226660;116;47784;-90
2021/04/17 11:01:10;;;;;;;10.78;6.55;;;;;;;17.57;69.56;101373.16;1245735;113;21367;-91
2021/04/17 11:03:49;;;;;;;12.43;7.42;;;;;;;17.52;70.81;101373.20;1297946;106;21294;-90
2021/04/17 11:06:19;;;;;;;12.00;6.45;;;;;;;17.42;63.52;101369.22;1327097;108;21279;-91
2021/04/17 11:08:47;;;;;;;10.70;6.80;;;;;;;17.69;60.78;101373.57;1326994;108;21271;-93
2021/04/17 11:11:21;;;;;;;13.90;7.50;;;;;;;17.64;66.97;101383.72;1326957;108;21360;-92
2021/04/17 11:13:57;;;;;;;12.28;6.60;;;;;;;17.85;64.52;101382.45;1309615;109;21378;-92
2021/04/17 11:16:47;;;;;;;12.50;7.70;;;;;;;17.59;60.24;101383.23;1308531;109;21299;-91
2021/04/17 11:19:34;;;;;;;10.48;6.10;;;;;;;17.24;62.58;101379.72;1341896;104;21368;-90
2021/04/17 11:22:21;;;;;;;13.45;6.70;;;;;;;17.29;60.98;101380.77;1367283;104;21305;-90
2021/04/17 11:25:03;;;;;;;13.03;6.78;;;;;;;17.63;62.50;101377.45;1387419;103;21280;-91
2021/04/17 11:27:31;;;;;;;10.68;5.95;;;;;;;17.49;61.06;101377.30;1437780;97;22299;-90
2021/04/17 11:29:58;;;;;;;11.63;6.85;;;;;;;17.43;55.29;101377.09;1446719;99;21716;-90
2021/04/17 11:32:26;;;;;;;13.60;6.78;;;;;;;17.47;62.51;101374.08;1446842;97;21248;-90
2021/04/17 11:34:52;;;;;;;10.72;6.58;;;;;;;17.42;62.23;101381.48;1447012;99;21234;-90
2021/04/17 11:37:20;;;;;;;12.20;7.17;;;;;;;17.45;62.02;101378.98;1447103;99;21221;-90
2021/04/17 11:39:46;;;;;;;14.23;6.78;;;;;;;17.82;58.96;101374.82;1458740;97;21293;-90
2021/04/17 11:42:16;;;;;;;10.65;6.45;;;;;;;17.89;58.48;101379.95;1474537;97;21299;-89
2021/04/17 11:44:40;;;;;;;10.98;6.60;;;;;;;17.71;59.89;101380.92;1474479;97;21273;-90
2021/04/17 11:47:06;;;;;;;11.00;6.58;;;;;;;18.43;56.42;101375.20;1474493;96;21095;-90
2021/04/17 11:49:32;;;;;;;12.07;6.85;;;;;;;18.00;59.60;101371.09;1474640;97;21234;-91
2021/04/17 11:51:58;;;;;;;10.68;6.20;;;;;;;18.27;55.99;101371.31;1481617;94;21823;-91
2021/04/17 11:54:25;;;;;;;15.10;6.80;;;;;;;18.44;54.46;101370.80;1513771;94;21033;-91
2021/04/17 11:56:50;;;;;;;10.82;6.17;;;;;;;18.23;51.70;101370.81;1513924;94;21224;-92
2021/04/17 11:59:16;;;;;;;9.95;6.17;;;;;;;17.73;55.21;101375.16;1513882;94;21070;-90
2021/04/17 12:01:42;;;;;;;12.50;7.47;;;;;;;17.52;55.23;101375.92;1514146;93;21225;-92